createdAt,value
2023-02-12T00:00:31.408Z,6.11
2023-02-12T00:01:31.452Z,6.11
2023-02-12T00:02:31.524Z,6.11
2023-02-12T00:03:31.615Z,6.11
2023-02-12T00:04:31.554Z,6.11
2023-02-12T00:05:31.587Z,6.11
2023-02-12T00:06:31.622Z,6.11
2023-02-12T00:07:31.661Z,6.11
2023-02-12T00:08:31.683Z,6.11
2023-02-12T00:09:31.752Z,6.12
2023-02-12T00:10:31.757Z,6.12
2023-02-12T00:11:31.787Z,6.12
2023-02-12T00:12:31.828Z,6.11
2023-02-12T00:13:31.850Z,6.11
2023-02-12T00:14:31.886Z,6.12
2023-02-12T00:15:31.961Z,6.11
2023-02-12T00:16:31.937Z,6.11
2023-02-12T00:17:31.969Z,6.1
2023-02-12T00:18:32.005Z,6.1
2023-02-12T00:19:32.046Z,6.1
2023-02-12T00:20:32.096Z,6.1
2023-02-12T00:21:32.117Z,6.11
2023-02-12T00:22:32.149Z,6.08
2023-02-12T00:23:32.197Z,6.08
2023-02-12T00:24:32.228Z,6.11
2023-02-12T00:25:32.251Z,6.1
2023-02-12T00:26:32.307Z,6.11
2023-02-12T00:27:32.325Z,6.08
2023-02-12T00:28:32.419Z,6.1
2023-02-12T00:29:32.400Z,6.1
2023-02-12T00:30:32.529Z,6.11
2023-02-12T00:31:32.566Z,6.1
2023-02-12T00:32:32.502Z,6.07
2023-02-12T00:33:32.521Z,6.08
2023-02-12T00:34:32.560Z,6.08
2023-02-12T00:35:32.595Z,6.07
2023-02-12T00:36:32.627Z,6.08
2023-02-12T00:37:32.658Z,6.09
2023-02-12T00:38:32.695Z,6.09
2023-02-12T00:39:32.741Z,6.09
2023-02-12T00:40:32.778Z,6.11
2023-02-12T00:41:32.807Z,6.1
2023-02-12T00:42:32.845Z,6.08
2023-02-12T00:43:32.874Z,6.08
2023-02-12T00:44:32.933Z,6.08
2023-02-12T00:45:32.948Z,6.1
2023-02-12T00:46:33.023Z,6.1
2023-02-12T00:47:33.012Z,6.1
2023-02-12T00:48:33.047Z,6.1
2023-02-12T00:49:33.094Z,6.08
2023-02-12T00:50:33.112Z,6.08
2023-02-12T00:51:33.150Z,6.08
2023-02-12T00:52:33.173Z,6.08
2023-02-12T00:53:33.205Z,6.09
2023-02-12T00:54:33.254Z,6.09
2023-02-12T00:55:33.279Z,6.08
2023-02-12T00:56:33.313Z,6.11
2023-02-12T00:57:33.377Z,6.08
2023-02-12T00:58:33.383Z,6.07
2023-02-12T00:59:33.423Z,6.07
2023-02-12T01:00:33.450Z,6.1
2023-02-12T01:01:33.556Z,6.11
2023-02-12T01:02:33.526Z,6.11
2023-02-12T01:03:33.587Z,6.1
2023-02-12T01:04:33.608Z,6.1
2023-02-12T01:05:33.626Z,6.11
2023-02-12T01:06:33.656Z,6.11
2023-02-12T01:07:33.687Z,6.11
2023-02-12T01:08:33.732Z,6.1
2023-02-12T01:09:33.780Z,6.12
2023-02-12T01:10:33.795Z,6.12
2023-02-12T01:11:33.826Z,6.12
2023-02-12T01:12:33.859Z,6.09
2023-02-12T01:13:33.904Z,6.09
2023-02-12T01:14:33.942Z,6.09
2023-02-12T01:15:33.974Z,6.09
2023-02-12T01:16:34.118Z,6.1
2023-02-12T01:17:34.047Z,6.1
2023-02-12T01:18:34.074Z,6.12
2023-02-12T01:19:34.109Z,6.08
2023-02-12T01:20:34.138Z,6.08
2023-02-12T01:21:34.271Z,6.08
2023-02-12T01:22:34.214Z,6.06
2023-02-12T01:23:34.244Z,6.07
2023-02-12T01:24:34.284Z,6.07
2023-02-12T01:25:34.325Z,6.07
2023-02-12T01:26:34.366Z,6.08
2023-02-12T01:27:34.408Z,6.08
2023-02-12T01:28:34.483Z,6.1
2023-02-12T01:29:34.452Z,6.11
2023-02-12T01:30:34.483Z,6.1
2023-02-12T01:31:34.641Z,6.1
2023-02-12T01:32:34.556Z,6.1
2023-02-12T01:33:34.588Z,6.1
2023-02-12T01:34:34.629Z,6.1
2023-02-12T01:35:34.651Z,6.1
2023-02-12T01:36:34.701Z,6.09
2023-02-12T01:37:34.738Z,6.08
2023-02-12T01:38:34.787Z,6.09
2023-02-12T01:39:34.828Z,6.07
2023-02-12T01:40:34.864Z,6.1
2023-02-12T01:41:34.864Z,6.07
2023-02-12T01:42:34.905Z,6.07
2023-02-12T01:43:34.947Z,6.07
2023-02-12T01:44:34.981Z,6.07
2023-02-12T01:45:35.007Z,6.06
2023-02-12T01:46:35.148Z,6.06
2023-02-12T01:47:35.069Z,6.05
2023-02-12T01:48:35.109Z,6.04
2023-02-12T01:49:35.142Z,6.05
2023-02-12T01:50:35.189Z,6.06
2023-02-12T01:51:35.230Z,6.07
2023-02-12T01:52:35.235Z,6.07
2023-02-12T01:53:35.267Z,6.07
2023-02-12T01:54:35.312Z,6.09
2023-02-12T01:55:35.342Z,6.09
2023-02-12T01:56:35.378Z,6.08
2023-02-12T01:57:35.435Z,6.08
2023-02-12T01:58:35.436Z,6.1
2023-02-12T01:59:35.467Z,6.08
2023-02-12T02:00:35.498Z,6.08
2023-02-12T02:01:35.596Z,6.07
2023-02-12T02:02:35.570Z,6.07
2023-02-12T02:03:35.685Z,6.07
2023-02-12T02:04:35.636Z,6.07
2023-02-12T02:05:35.674Z,6.07
2023-02-12T02:06:35.700Z,6.07
2023-02-12T02:07:35.739Z,6.04
2023-02-12T02:08:35.778Z,6.04
2023-02-12T02:09:35.867Z,6.04
2023-02-12T02:10:35.847Z,6.04
2023-02-12T02:11:35.881Z,6.07
2023-02-12T02:12:35.914Z,6.07
2023-02-12T02:13:35.942Z,6.06
2023-02-12T02:14:35.980Z,6.06
2023-02-12T02:15:35.998Z,6.05
2023-02-12T02:16:36.046Z,6.05
2023-02-12T02:17:36.105Z,6.08
2023-02-12T02:18:36.095Z,6.02
2023-02-12T02:19:36.126Z,6.02
2023-02-12T02:20:36.177Z,6.03
2023-02-12T02:21:36.209Z,6.01
2023-02-12T02:22:36.247Z,6.02
2023-02-12T02:23:36.272Z,6.01
2023-02-12T02:24:36.305Z,5.99
2023-02-12T02:25:36.353Z,5.99
2023-02-12T02:26:36.367Z,5.99
2023-02-12T02:27:36.406Z,5.99
2023-02-12T02:28:36.459Z,6
2023-02-12T02:29:36.463Z,6.01
2023-02-12T02:30:36.526Z,6.01
2023-02-12T02:31:36.661Z,6.02
2023-02-12T02:32:36.573Z,6.03
2023-02-12T02:33:36.608Z,6.02
2023-02-12T02:34:36.631Z,6.03
2023-02-12T02:35:36.666Z,6.02
2023-02-12T02:36:36.720Z,6.02
2023-02-12T02:37:36.735Z,6.02
2023-02-12T02:38:36.768Z,6.02
2023-02-12T02:39:36.812Z,6.02
2023-02-12T02:40:36.843Z,6.02
2023-02-12T02:41:36.883Z,6.02
2023-02-12T02:42:36.917Z,6.01
2023-02-12T02:43:36.953Z,6.01
2023-02-12T02:44:36.980Z,5.99
2023-02-12T02:45:37.019Z,5.99
2023-02-12T02:46:37.138Z,5.98
2023-02-12T02:47:37.086Z,5.99
2023-02-12T02:48:37.128Z,5.98
2023-02-12T02:49:37.143Z,5.98
2023-02-12T02:50:37.180Z,5.99
2023-02-12T02:51:37.219Z,5.99
2023-02-12T02:52:37.264Z,5.99
2023-02-12T02:53:37.295Z,5.99
2023-02-12T02:54:37.328Z,5.96
2023-02-12T02:55:37.366Z,5.97
2023-02-12T02:56:37.417Z,5.98
2023-02-12T02:57:37.445Z,5.98
2023-02-12T02:58:37.459Z,5.96
2023-02-12T02:59:37.496Z,5.97
2023-02-12T03:00:37.613Z,5.97
2023-02-12T03:01:37.562Z,5.97
2023-02-12T03:02:37.642Z,5.98
2023-02-12T03:03:37.656Z,5.98
2023-02-12T03:04:37.715Z,5.99
2023-02-12T03:05:37.732Z,5.97
2023-02-12T03:06:37.767Z,6
2023-02-12T03:07:37.794Z,5.96
2023-02-12T03:08:37.837Z,5.95
2023-02-12T03:09:37.877Z,5.93
2023-02-12T03:10:37.898Z,5.94
2023-02-12T03:11:37.937Z,5.94
2023-02-12T03:12:37.969Z,5.94
2023-02-12T03:13:38.000Z,5.94
2023-02-12T03:14:38.029Z,5.94
2023-02-12T03:15:38.063Z,5.93
2023-02-12T03:16:38.162Z,5.93
2023-02-12T03:17:38.121Z,5.92
2023-02-12T03:18:38.163Z,5.93
2023-02-12T03:19:38.195Z,5.93
2023-02-12T03:20:38.236Z,5.92
2023-02-12T03:21:38.260Z,5.93
2023-02-12T03:22:38.288Z,5.91
2023-02-12T03:23:38.319Z,5.94
2023-02-12T03:24:38.358Z,5.92
2023-02-12T03:25:38.380Z,5.92
2023-02-12T03:26:38.420Z,5.92
2023-02-12T03:27:38.451Z,5.92
2023-02-12T03:28:38.587Z,5.92
2023-02-12T03:29:38.525Z,5.91
2023-02-12T03:30:38.689Z,5.92
2023-02-12T03:31:38.685Z,5.92
2023-02-12T03:32:38.662Z,5.9
2023-02-12T03:33:38.670Z,5.9
2023-02-12T03:34:38.700Z,5.91
2023-02-12T03:35:38.735Z,5.92
2023-02-12T03:36:38.767Z,5.89
2023-02-12T03:37:38.800Z,5.92
2023-02-12T03:38:38.830Z,5.9
2023-02-12T03:39:38.872Z,5.9
2023-02-12T03:40:38.927Z,5.9
2023-02-12T03:41:38.960Z,5.9
2023-02-12T03:42:38.989Z,5.91
2023-02-12T03:43:39.018Z,5.88
2023-02-12T03:44:39.047Z,5.88
2023-02-12T03:45:39.173Z,5.89
2023-02-12T03:46:39.128Z,5.89
2023-02-12T03:47:39.161Z,5.9
2023-02-12T03:48:39.193Z,5.9
2023-02-12T03:49:39.232Z,5.9
2023-02-12T03:50:39.269Z,5.91
2023-02-12T03:51:39.294Z,5.91
2023-02-12T03:52:39.331Z,5.91
2023-02-12T03:53:39.379Z,5.91
2023-02-12T03:54:39.410Z,5.92
2023-02-12T03:55:39.443Z,5.92
2023-02-12T03:56:39.471Z,5.92
2023-02-12T03:57:39.505Z,5.92
2023-02-12T03:58:39.523Z,5.91
2023-02-12T03:59:39.561Z,5.91
2023-02-12T04:00:39.600Z,5.92
2023-02-12T04:01:39.783Z,5.92
2023-02-12T04:02:39.658Z,5.93
2023-02-12T04:03:39.689Z,5.93
2023-02-12T04:04:39.851Z,5.93
2023-02-12T04:05:39.770Z,5.92
2023-02-12T04:06:39.809Z,5.92
2023-02-12T04:07:39.856Z,5.92
2023-02-12T04:08:39.894Z,5.89
2023-02-12T04:09:39.919Z,5.92
2023-02-12T04:10:39.957Z,5.92
2023-02-12T04:11:39.981Z,5.92
2023-02-12T04:12:40.018Z,5.86
2023-02-12T04:13:40.057Z,5.89
2023-02-12T04:14:40.091Z,5.91
2023-02-12T04:15:40.131Z,5.9
2023-02-12T04:16:40.209Z,5.9
2023-02-12T04:17:40.200Z,5.9
2023-02-12T04:18:40.241Z,5.88
2023-02-12T04:19:40.280Z,5.88
2023-02-12T04:20:40.316Z,5.88
2023-02-12T04:21:40.348Z,5.87
2023-02-12T04:22:40.371Z,5.87
2023-02-12T04:23:40.422Z,5.85
2023-02-12T04:24:40.431Z,5.89
2023-02-12T04:25:40.465Z,5.88
2023-02-12T04:26:40.496Z,5.88
2023-02-12T04:27:40.531Z,5.86
2023-02-12T04:28:40.616Z,5.86
2023-02-12T04:29:40.596Z,5.85
2023-02-12T04:30:40.724Z,5.81
2023-02-12T04:31:40.796Z,5.83
2023-02-12T04:32:40.714Z,5.82
2023-02-12T04:33:40.737Z,5.82
2023-02-12T04:34:40.762Z,5.82
2023-02-12T04:35:40.822Z,5.82
2023-02-12T04:36:40.822Z,5.82
2023-02-12T04:37:40.854Z,5.81
2023-02-12T04:38:40.892Z,5.81
2023-02-12T04:39:40.920Z,5.79
2023-02-12T04:40:40.977Z,5.78
2023-02-12T04:41:40.991Z,5.78
2023-02-12T04:42:41.029Z,5.78
2023-02-12T04:43:41.093Z,5.77
2023-02-12T04:44:41.095Z,5.77
2023-02-12T04:45:41.170Z,5.79
2023-02-12T04:46:41.155Z,5.79
2023-02-12T04:47:41.188Z,5.8
2023-02-12T04:48:41.228Z,5.8
2023-02-12T04:49:41.258Z,5.78
2023-02-12T04:50:41.306Z,5.75
2023-02-12T04:51:41.328Z,5.75
2023-02-12T04:52:41.353Z,5.71
2023-02-12T04:53:41.387Z,5.68
2023-02-12T04:54:41.421Z,5.69
2023-02-12T04:55:41.462Z,5.67
2023-02-12T04:56:41.499Z,5.67
2023-02-12T04:57:41.528Z,5.66
2023-02-12T04:58:41.550Z,5.65
2023-02-12T04:59:41.588Z,5.63
2023-02-12T05:00:41.633Z,5.58
2023-02-12T05:01:41.755Z,5.59
2023-02-12T05:02:41.697Z,5.6
2023-02-12T05:03:41.728Z,5.58
2023-02-12T05:04:41.797Z,5.58
2023-02-12T05:05:41.813Z,5.56
2023-02-12T05:06:41.834Z,5.53
2023-02-12T05:07:41.868Z,5.51
2023-02-12T05:08:41.906Z,5.48
2023-02-12T05:09:41.967Z,5.51
2023-02-12T05:10:41.960Z,5.5
2023-02-12T05:11:42.002Z,5.48
2023-02-12T05:12:42.045Z,5.48
2023-02-12T05:13:42.067Z,5.49
2023-02-12T05:14:42.136Z,5.44
2023-02-12T05:15:42.214Z,5.45
2023-02-12T05:16:42.170Z,5.46
2023-02-12T05:17:42.212Z,5.46
2023-02-12T05:18:42.258Z,5.45
2023-02-12T05:19:42.293Z,5.45
2023-02-12T05:20:42.322Z,5.46
2023-02-12T05:21:42.360Z,5.47
2023-02-12T05:22:42.382Z,5.49
2023-02-12T05:23:42.418Z,5.5
2023-02-12T05:24:42.447Z,5.51
2023-02-12T05:25:42.528Z,5.51
2023-02-12T05:26:42.528Z,5.5
2023-02-12T05:27:42.554Z,5.49
2023-02-12T05:28:42.600Z,5.46
2023-02-12T05:29:42.646Z,5.46
2023-02-12T05:30:42.760Z,5.45
2023-02-12T05:31:42.808Z,5.45
2023-02-12T05:32:42.754Z,5.45
2023-02-12T05:33:42.783Z,5.44
2023-02-12T05:34:42.817Z,5.43
2023-02-12T05:35:42.861Z,5.43
2023-02-12T05:36:42.896Z,5.44
2023-02-12T05:37:42.923Z,5.41
2023-02-12T05:38:42.953Z,5.41
2023-02-12T05:39:43.014Z,5.4
2023-02-12T05:40:43.026Z,5.4
2023-02-12T05:41:43.063Z,5.4
2023-02-12T05:42:43.096Z,5.4
2023-02-12T05:43:43.124Z,5.37
2023-02-12T05:44:43.161Z,5.37
2023-02-12T05:45:43.195Z,5.37
2023-02-12T05:46:43.345Z,5.35
2023-02-12T05:47:43.271Z,5.36
2023-02-12T05:48:43.302Z,5.34
2023-02-12T05:49:43.332Z,5.35
2023-02-12T05:50:43.356Z,5.35
2023-02-12T05:51:43.407Z,5.35
2023-02-12T05:52:43.428Z,5.34
2023-02-12T05:53:43.464Z,5.35
2023-02-12T05:54:43.495Z,5.36
2023-02-12T05:55:43.530Z,5.38
2023-02-12T05:56:43.567Z,5.38
2023-02-12T05:57:43.607Z,5.37
2023-02-12T05:58:43.653Z,5.39
2023-02-12T05:59:43.681Z,5.41
2023-02-12T06:00:43.726Z,5.42
2023-02-12T06:01:43.789Z,5.43
2023-02-12T06:02:43.823Z,5.44
2023-02-12T06:03:43.862Z,5.45
2023-02-12T06:04:43.870Z,5.42
2023-02-12T06:05:43.889Z,5.44
2023-02-12T06:06:43.950Z,5.42
2023-02-12T06:07:43.955Z,5.41
2023-02-12T06:08:43.988Z,5.41
2023-02-12T06:09:44.023Z,5.39
2023-02-12T06:10:44.050Z,5.39
2023-02-12T06:11:44.101Z,5.44
2023-02-12T06:12:44.123Z,5.41
2023-02-12T06:13:44.155Z,5.42
2023-02-12T06:14:44.187Z,5.37
2023-02-12T06:15:44.245Z,5.4
2023-02-12T06:16:44.254Z,5.36
2023-02-12T06:17:44.296Z,5.35
2023-02-12T06:18:44.328Z,5.35
2023-02-12T06:19:44.366Z,5.33
2023-02-12T06:20:44.400Z,5.33
2023-02-12T06:21:44.433Z,5.33
2023-02-12T06:22:44.477Z,5.33
2023-02-12T06:23:44.507Z,5.32
2023-02-12T06:24:44.532Z,5.34
2023-02-12T06:25:44.579Z,5.31
2023-02-12T06:26:44.620Z,5.35
2023-02-12T06:27:44.655Z,5.3
2023-02-12T06:28:44.688Z,5.3
2023-02-12T06:29:44.721Z,5.3
2023-02-12T06:30:44.871Z,5.31
2023-02-12T06:31:44.922Z,5.32
2023-02-12T06:32:44.825Z,5.33
2023-02-12T06:33:44.864Z,5.34
2023-02-12T06:34:44.906Z,5.35
2023-02-12T06:35:44.940Z,5.38
2023-02-12T06:36:44.973Z,5.38
2023-02-12T06:37:45.010Z,5.38
2023-02-12T06:38:45.036Z,5.37
2023-02-12T06:39:45.077Z,5.36
2023-02-12T06:40:45.121Z,5.36
2023-02-12T06:41:45.165Z,5.38
2023-02-12T06:42:45.184Z,5.38
2023-02-12T06:43:45.241Z,5.38
2023-02-12T06:44:45.252Z,5.38
2023-02-12T06:45:45.295Z,5.37
2023-02-12T06:46:45.377Z,5.34
2023-02-12T06:47:45.363Z,5.33
2023-02-12T06:48:45.433Z,5.3
2023-02-12T06:49:45.433Z,5.31
2023-02-12T06:50:45.471Z,5.33
2023-02-12T06:51:45.489Z,5.34
2023-02-12T06:52:45.529Z,5.38
2023-02-12T06:53:45.585Z,5.37
2023-02-12T06:54:45.583Z,5.37
2023-02-12T06:55:45.639Z,5.37
2023-02-12T06:56:45.669Z,5.35
2023-02-12T06:57:45.703Z,5.35
2023-02-12T06:58:45.736Z,5.37
2023-02-12T06:59:45.775Z,5.37
2023-02-12T07:00:45.835Z,5.38
2023-02-12T07:01:45.849Z,5.39
2023-02-12T07:02:45.874Z,5.39
2023-02-12T07:03:45.896Z,5.4
2023-02-12T07:04:45.937Z,5.38
2023-02-12T07:05:45.972Z,5.38
2023-02-12T07:06:46.001Z,5.38
2023-02-12T07:07:46.034Z,5.38
2023-02-12T07:08:46.095Z,5.38
2023-02-12T07:09:46.099Z,5.39
2023-02-12T07:10:46.136Z,5.38
2023-02-12T07:11:46.174Z,5.39
2023-02-12T07:12:46.231Z,5.41
2023-02-12T07:13:46.235Z,5.4
2023-02-12T07:14:46.278Z,5.41
2023-02-12T07:15:46.305Z,5.41
2023-02-12T07:16:46.438Z,5.44
2023-02-12T07:17:46.372Z,5.43
2023-02-12T07:18:46.400Z,5.44
2023-02-12T07:19:46.472Z,5.44
2023-02-12T07:20:46.470Z,5.46
2023-02-12T07:21:46.494Z,5.45
2023-02-12T07:22:46.530Z,5.43
2023-02-12T07:23:48.550Z,5.42
2023-02-12T07:24:46.612Z,5.45
2023-02-12T07:25:46.628Z,5.45
2023-02-12T07:26:46.666Z,5.45
2023-02-12T07:27:46.689Z,5.45
2023-02-12T07:28:46.730Z,5.45
2023-02-12T07:29:46.764Z,5.46
2023-02-12T07:30:46.851Z,5.49
2023-02-12T07:31:46.940Z,5.47
2023-02-12T07:32:46.867Z,5.5
2023-02-12T07:33:46.902Z,5.5
2023-02-12T07:34:46.928Z,5.51
2023-02-12T07:35:46.971Z,5.53
2023-02-12T07:36:46.990Z,5.53
2023-02-12T07:37:47.061Z,5.53
2023-02-12T07:38:47.071Z,5.54
2023-02-12T07:39:47.081Z,5.53
2023-02-12T07:40:47.123Z,5.52
2023-02-12T07:41:47.161Z,5.53
2023-02-12T07:42:47.205Z,5.52
2023-02-12T07:43:47.229Z,5.52
2023-02-12T07:44:47.260Z,5.55
2023-02-12T07:45:47.347Z,5.56
2023-02-12T07:46:48.528Z,5.57
2023-02-12T07:47:47.349Z,5.59
2023-02-12T07:48:47.394Z,5.6
2023-02-12T07:49:47.420Z,5.6
2023-02-12T07:50:47.455Z,5.6
2023-02-12T07:51:47.487Z,5.62
2023-02-12T07:52:47.525Z,5.62
2023-02-12T07:53:47.565Z,5.62
2023-02-12T07:54:47.592Z,5.67
2023-02-12T07:55:47.628Z,5.69
2023-02-12T07:56:47.718Z,5.71
2023-02-12T07:57:47.703Z,5.72
2023-02-12T07:58:47.732Z,5.7
2023-02-12T07:59:47.772Z,5.69
2023-02-12T08:00:47.805Z,5.69
2023-02-12T08:01:47.834Z,5.7
2023-02-12T08:02:47.903Z,5.72
2023-02-12T08:03:47.896Z,5.76
2023-02-12T08:04:48.000Z,5.78
2023-02-12T08:05:48.008Z,5.77
2023-02-12T08:06:48.022Z,5.78
2023-02-12T08:07:48.042Z,5.8
2023-02-12T08:08:48.077Z,5.8
2023-02-12T08:09:48.115Z,5.8
2023-02-12T08:10:48.164Z,5.87
2023-02-12T08:11:48.190Z,5.87
2023-02-12T08:12:48.224Z,5.87
2023-02-12T08:13:48.277Z,5.89
2023-02-12T08:14:48.281Z,5.88
2023-02-12T08:15:48.322Z,5.9
2023-02-12T08:16:48.504Z,5.9
2023-02-12T08:17:48.400Z,5.9
2023-02-12T08:18:48.428Z,5.93
2023-02-12T08:19:48.465Z,5.94
2023-02-12T08:20:48.497Z,5.94
2023-02-12T08:21:48.534Z,5.92
2023-02-12T08:22:48.561Z,5.92
2023-02-12T08:23:48.592Z,5.92
2023-02-12T08:24:48.645Z,5.94
2023-02-12T08:25:48.664Z,5.94
2023-02-12T08:26:48.713Z,5.94
2023-02-12T08:27:48.741Z,5.98
2023-02-12T08:28:48.762Z,5.98
2023-02-12T08:29:48.793Z,5.98
2023-02-12T08:30:48.828Z,5.97
2023-02-12T08:31:48.956Z,5.97
2023-02-12T08:32:48.889Z,5.97
2023-02-12T08:33:48.922Z,5.97
2023-02-12T08:34:48.954Z,5.98
2023-02-12T08:35:48.993Z,5.98
2023-02-12T08:36:49.049Z,5.98
2023-02-12T08:37:49.063Z,5.98
2023-02-12T08:38:49.114Z,5.98
2023-02-12T08:39:49.125Z,5.98
2023-02-12T08:40:49.172Z,6.06
2023-02-12T08:41:49.214Z,6.06
2023-02-12T08:42:49.226Z,6.05
2023-02-12T08:43:49.282Z,6.04
2023-02-12T08:44:49.292Z,6.05
2023-02-12T08:45:49.357Z,6.05
2023-02-12T08:46:49.356Z,6.05
2023-02-12T08:47:49.429Z,6.06
2023-02-12T08:48:49.430Z,6.07
2023-02-12T08:49:49.463Z,6.09
2023-02-12T08:50:49.500Z,6.09
2023-02-12T08:51:49.534Z,6.1
2023-02-12T08:52:49.599Z,6.12
2023-02-12T08:53:49.600Z,6.12
2023-02-12T08:54:49.617Z,6.1
2023-02-12T08:55:49.660Z,6.12
2023-02-12T08:56:49.682Z,6.15
2023-02-12T08:57:49.764Z,6.14
2023-02-12T08:58:49.758Z,6.14
2023-02-12T08:59:49.806Z,6.14
2023-02-12T09:00:49.830Z,6.16
2023-02-12T09:01:49.855Z,6.16
2023-02-12T09:02:49.953Z,6.16
2023-02-12T09:03:49.919Z,6.18
2023-02-12T09:04:49.936Z,6.2
2023-02-12T09:05:49.970Z,6.2
2023-02-12T09:06:50.032Z,6.22
2023-02-12T09:07:50.038Z,6.28
2023-02-12T09:08:50.077Z,6.31
2023-02-12T09:09:50.096Z,6.31
2023-02-12T09:10:50.125Z,6.33
2023-02-12T09:11:50.191Z,6.36
2023-02-12T09:12:50.199Z,6.4
2023-02-12T09:13:50.236Z,6.42
2023-02-12T09:14:50.269Z,6.41
2023-02-12T09:15:50.299Z,6.41
2023-02-12T09:16:50.365Z,6.41
2023-02-12T09:17:50.364Z,6.43
2023-02-12T09:18:50.435Z,6.45
2023-02-12T09:19:50.435Z,6.46
2023-02-12T09:20:50.485Z,6.47
2023-02-12T09:21:52.227Z,6.48
2023-02-12T09:22:50.545Z,6.47
2023-02-12T09:23:50.599Z,6.48
2023-02-12T09:24:50.614Z,6.53
2023-02-12T09:25:50.656Z,6.54
2023-02-12T09:26:50.694Z,6.54
2023-02-12T09:27:50.730Z,6.56
2023-02-12T09:28:50.810Z,6.61
2023-02-12T09:29:50.803Z,6.6
2023-02-12T09:30:50.940Z,6.6
2023-02-12T09:31:50.990Z,6.6
2023-02-12T09:32:50.892Z,6.63
2023-02-12T09:33:54.693Z,6.62
2023-02-12T09:34:50.963Z,6.65
2023-02-12T09:35:50.991Z,6.66
2023-02-12T09:36:51.031Z,6.67
2023-02-12T09:37:51.056Z,6.67
2023-02-12T09:38:51.106Z,6.67
2023-02-12T09:39:51.319Z,6.67
2023-02-12T09:40:51.162Z,6.67
2023-02-12T09:41:51.202Z,6.66
2023-02-12T09:42:51.234Z,6.68
2023-02-12T09:43:51.268Z,6.73
2023-02-12T09:44:51.304Z,6.73
2023-02-12T09:45:51.485Z,6.74
2023-02-12T09:46:51.485Z,6.74
2023-02-12T09:47:51.413Z,6.76
2023-02-12T09:48:51.445Z,6.75
2023-02-12T09:49:51.476Z,6.76
2023-02-12T09:50:51.560Z,6.76
2023-02-12T09:51:51.674Z,6.75
2023-02-12T09:52:51.566Z,6.75
2023-02-12T09:53:51.607Z,6.76
2023-02-12T09:54:51.652Z,6.75
2023-02-12T09:55:51.687Z,6.76
2023-02-12T09:56:51.750Z,6.76
2023-02-12T09:57:54.506Z,6.77
2023-02-12T09:58:51.790Z,6.78
2023-02-12T09:59:51.824Z,6.78
2023-02-12T10:00:51.861Z,6.79
2023-02-12T10:01:51.944Z,6.8
2023-02-12T10:02:51.932Z,6.8
2023-02-12T10:03:51.966Z,6.8
2023-02-12T10:05:00.662Z,6.83
2023-02-12T10:05:52.038Z,6.83
2023-02-12T10:06:52.066Z,6.83
2023-02-12T10:07:52.097Z,6.85
2023-02-12T10:08:52.136Z,6.88
2023-02-12T10:09:52.169Z,6.87
2023-02-12T10:10:52.201Z,6.86
2023-02-12T10:11:52.238Z,6.85
2023-02-12T10:12:52.264Z,6.85
2023-02-12T10:13:52.311Z,6.85
2023-02-12T10:14:52.341Z,6.85
2023-02-12T10:15:52.454Z,6.85
2023-02-12T10:16:52.415Z,6.89
2023-02-12T10:17:52.461Z,6.89
2023-02-12T10:18:52.485Z,6.89
2023-02-12T10:19:52.518Z,6.89
2023-02-12T10:20:52.576Z,6.89
2023-02-12T10:21:52.591Z,6.91
2023-02-12T10:22:57.199Z,6.91
2023-02-12T10:23:52.652Z,6.91
2023-02-12T10:24:52.710Z,6.94
2023-02-12T10:25:54.303Z,6.93
2023-02-12T10:26:52.778Z,6.93
2023-02-12T10:27:52.789Z,6.93
2023-02-12T10:28:52.818Z,6.93
2023-02-12T10:29:52.864Z,6.94
2023-02-12T10:30:53.042Z,6.95
2023-02-12T10:31:53.152Z,6.95
2023-02-12T10:32:52.961Z,6.97
2023-02-12T10:33:52.993Z,6.98
2023-02-12T10:34:53.028Z,6.98
2023-02-12T10:35:53.061Z,6.96
2023-02-12T10:36:53.139Z,6.97
2023-02-12T10:37:53.123Z,6.95
2023-02-12T10:38:53.149Z,6.96
2023-02-12T10:39:53.177Z,6.95
2023-02-12T10:40:53.209Z,6.94
2023-02-12T10:41:53.260Z,6.93
2023-02-12T10:42:53.290Z,6.94
2023-02-12T10:43:53.311Z,6.97
2023-02-12T10:44:53.354Z,6.98
2023-02-12T10:45:53.524Z,6.98
2023-02-12T10:46:53.430Z,6.98
2023-02-12T10:47:53.501Z,6.98
2023-02-12T10:48:53.502Z,6.98
2023-02-12T10:49:53.531Z,6.97
2023-02-12T10:50:53.571Z,6.97
2023-02-12T10:51:53.610Z,6.98
2023-02-12T10:52:53.652Z,6.94
2023-02-12T10:53:53.671Z,6.92
2023-02-12T10:54:53.706Z,6.93
2023-02-12T10:55:53.998Z,6.91
2023-02-12T10:56:53.777Z,6.93
2023-02-12T10:57:53.818Z,6.91
2023-02-12T10:58:53.855Z,6.9
2023-02-12T10:59:53.894Z,6.91
2023-02-12T11:00:53.918Z,6.92
2023-02-12T11:01:53.992Z,6.93
2023-02-12T11:02:53.989Z,6.93
2023-02-12T11:03:54.088Z,6.92
2023-02-12T11:04:54.085Z,6.93
2023-02-12T11:05:54.667Z,6.93
2023-02-12T11:06:54.109Z,6.93
2023-02-12T11:07:54.148Z,6.93
2023-02-12T11:08:54.207Z,6.93
2023-02-12T11:09:54.262Z,6.97
2023-02-12T11:10:54.252Z,6.97
2023-02-12T11:11:54.295Z,7
2023-02-12T11:12:54.325Z,6.99
2023-02-12T11:13:54.348Z,6.96
2023-02-12T11:14:54.400Z,6.95
2023-02-12T11:15:54.535Z,6.95
2023-02-12T11:16:55.486Z,6.96
2023-02-12T11:17:54.479Z,6.97
2023-02-12T11:18:54.507Z,6.97
2023-02-12T11:19:54.543Z,6.97
2023-02-12T11:20:54.591Z,6.97
2023-02-12T11:21:54.621Z,6.97
2023-02-12T11:22:54.662Z,6.97
2023-02-12T11:23:54.684Z,7
2023-02-12T11:24:54.710Z,7
2023-02-12T11:25:55.048Z,7.01
2023-02-12T11:26:54.825Z,7.01
2023-02-12T11:27:54.876Z,7.03
2023-02-12T11:28:54.989Z,7.03
2023-02-12T11:29:54.876Z,7.02
2023-02-12T11:30:55.096Z,7.03
2023-02-12T11:31:55.041Z,7.03
2023-02-12T11:32:54.986Z,7.06
2023-02-12T11:33:55.041Z,7.05
2023-02-12T11:34:55.040Z,7.03
2023-02-12T11:35:55.069Z,7.02
2023-02-12T11:36:55.106Z,7
2023-02-12T11:37:55.138Z,7
2023-02-12T11:38:55.201Z,7.01
2023-02-12T11:39:55.207Z,7.01
2023-02-12T11:40:55.814Z,7.01
2023-02-12T11:41:55.266Z,6.98
2023-02-12T11:42:55.302Z,6.92
2023-02-12T11:43:55.338Z,6.92
2023-02-12T11:44:55.384Z,6.9
2023-02-12T11:45:55.410Z,6.9
2023-02-12T11:46:55.551Z,6.9
2023-02-12T11:47:55.481Z,6.9
2023-02-12T11:48:55.508Z,6.9
2023-02-12T11:49:55.595Z,6.91
2023-02-12T11:50:55.584Z,6.97
2023-02-12T11:51:55.630Z,6.98
2023-02-12T11:52:55.670Z,6.98
2023-02-12T11:53:55.711Z,7
2023-02-12T11:54:55.761Z,7
2023-02-12T11:55:55.782Z,7.04
2023-02-12T11:56:55.810Z,7.04
2023-02-12T11:57:55.838Z,7.04
2023-02-12T11:58:55.868Z,7.04
2023-02-12T11:59:55.913Z,7.02
2023-02-12T12:00:55.941Z,7.03
2023-02-12T12:01:56.029Z,7.04
2023-02-12T12:02:56.021Z,7.05
2023-02-12T12:03:56.055Z,7.03
2023-02-12T12:04:56.078Z,7.05
2023-02-12T12:05:56.457Z,7.03
2023-02-12T12:06:56.129Z,7.01
2023-02-12T12:07:56.174Z,6.98
2023-02-12T12:08:56.199Z,6.98
2023-02-12T12:09:56.250Z,6.98
2023-02-12T12:10:56.267Z,7.06
2023-02-12T12:11:56.302Z,7.06
2023-02-12T12:12:56.333Z,7.02
2023-02-12T12:13:56.363Z,6.99
2023-02-12T12:14:56.404Z,7.04
2023-02-12T12:15:56.843Z,7.03
2023-02-12T12:16:56.491Z,7.04
2023-02-12T12:17:56.529Z,7.05
2023-02-12T12:18:56.540Z,7.07
2023-02-12T12:19:56.572Z,7.11
2023-02-12T12:20:56.632Z,7.11
2023-02-12T12:21:56.658Z,7.15
2023-02-12T12:22:56.680Z,7.13
2023-02-12T12:23:56.714Z,7.12
2023-02-12T12:24:56.742Z,7.12
2023-02-12T12:25:57.200Z,7.12
2023-02-12T12:26:56.843Z,7.18
2023-02-12T12:27:56.838Z,7.14
2023-02-12T12:28:56.862Z,7.16
2023-02-12T12:29:56.892Z,7.18
2023-02-12T12:30:56.966Z,7.15
2023-02-12T12:31:57.032Z,7.2
2023-02-12T12:32:56.996Z,7.2
2023-02-12T12:33:57.021Z,7.19
2023-02-12T12:34:57.064Z,7.17
2023-02-12T12:35:57.490Z,7.17
2023-02-12T12:36:57.133Z,7.13
2023-02-12T12:37:57.164Z,7.2
2023-02-12T12:38:57.201Z,7.2
2023-02-12T12:39:57.233Z,7.16
2023-02-12T12:40:57.263Z,7.2
2023-02-12T12:41:57.321Z,7.22
2023-02-12T12:42:57.333Z,7.28
2023-02-12T12:43:57.369Z,7.34
2023-02-12T12:44:57.434Z,7.39
2023-02-12T12:45:57.813Z,7.37
2023-02-12T12:46:57.468Z,7.33
2023-02-12T12:47:57.504Z,7.32
2023-02-12T12:48:57.544Z,7.3
2023-02-12T12:49:57.598Z,7.28
2023-02-12T12:50:57.612Z,7.25
2023-02-12T12:51:57.642Z,7.2
2023-02-12T12:52:57.679Z,7.21
2023-02-12T12:53:57.707Z,7.23
2023-02-12T12:54:57.804Z,7.24
2023-02-12T12:55:58.151Z,7.28
2023-02-12T12:56:57.827Z,7.33
2023-02-12T12:57:57.854Z,7.38
2023-02-12T12:58:57.893Z,7.52
2023-02-12T12:59:57.934Z,7.63
2023-02-12T13:00:57.969Z,7.64
2023-02-12T13:01:58.153Z,7.65
2023-02-12T13:02:58.021Z,7.63
2023-02-12T13:03:58.059Z,7.59
2023-02-12T13:04:58.096Z,7.61
2023-02-12T13:05:58.710Z,7.59
2023-02-12T13:06:58.164Z,7.59
2023-02-12T13:07:58.206Z,7.59
2023-02-12T13:08:58.230Z,7.59
2023-02-12T13:09:58.270Z,7.6
2023-02-12T13:10:58.308Z,7.59
2023-02-12T13:11:58.336Z,7.59
2023-02-12T13:12:58.373Z,7.59
2023-02-12T13:13:58.415Z,7.61
2023-02-12T13:14:58.446Z,7.61
2023-02-12T13:15:58.703Z,7.6
2023-02-12T13:16:58.539Z,7.61
2023-02-12T13:17:58.559Z,7.62
2023-02-12T13:18:58.600Z,7.68
2023-02-12T13:19:58.627Z,7.65
2023-02-12T13:20:58.665Z,7.71
2023-02-12T13:21:58.699Z,7.7
2023-02-12T13:22:58.730Z,7.69